Portada
METAR-TAF:

METAR-TAF

Aeropuertos :

Metropolis Municipal Airport

Metropolis, Illinois, Estados Unidos

latitud: 37-11-09N, longitud: 088-45-02W, altitud: 117 m

Observación

El informe se hizo hace 18 minutos, a las 10:35 UTC
Viento 6 kt del norte
Temperatura 2°C
Humedad 69%
Presión 1033 hPa
Visibilidad: 16.1 km
Cielo cubierto a una altura de 10000 ft

METAR: KM30 201035Z AUTO 01006KT 10SM OVC100 02/M03 A3049 RMK AO2 T00161035

Hora: 04:53 (10:53 UTC)


TAF: falta

Observaciones y pronósticos meteorológicos de más de 4000 aeropuertos (mensajes METAR y TAF).

Los puntos amarillos y rojos representan las estaciones disponibles.

Ponga el ratón en el punto deseado para ver el nombre de la estación.

Haga clic para ver las observaciones y los pronósticos meteorológicos.

Para cambiar el mapa : haga clic en los botones verdes con una cruz de color negro para hacer un zoom, en el botón verde con un guión para alejar o en las flechas verdes para mapas adyacentes.


METAR-TAF: